Time;durP1;ratioP1;P1;durP2;ratioP2;P2;SDS_P1;SDS_P2;PMS_P1;PMS_P2;Temp;Humidity;BMP_temperature;BMP_pressure;BME280_temperature;BME280_humidity;BME280_pressure;Samples;Min_cycle;Max_cycle;Signal;HPM_P1;HPM_P2
2022/05/24 00:00:20;;;;;;;11.43;4.00;;;27.60;99.90;;;;;;5014192;28;20053;-51
2022/05/24 00:02:46;;;;;;;13.13;3.70;;;27.60;99.90;;;;;;5013734;28;20445;-52
2022/05/24 00:05:12;;;;;;;9.30;3.33;;;27.60;99.90;;;;;;5013864;28;20022;-53
2022/05/24 00:07:39;;;;;;;12.45;3.75;;;27.50;99.90;;;;;;5012430;28;20525;-52
2022/05/24 00:10:08;;;;;;;12.15;3.90;;;27.50;99.90;;;;;;5013648;28;20108;-52
2022/05/24 00:12:34;;;;;;;10.82;3.92;;;27.50;99.90;;;;;;5012331;28;20026;-53
2022/05/24 00:17:55;;;;;;;10.65;3.15;;;27.50;99.90;;;;;;5013486;28;20044;-52
2022/05/24 00:20:24;;;;;;;10.27;3.80;;;27.40;99.90;;;;;;5013325;28;20496;-52
2022/05/24 00:22:50;;;;;;;14.57;4.43;;;27.40;99.90;;;;;;5013349;28;20658;-52
2022/05/24 00:25:15;;;;;;;13.70;4.00;;;27.50;99.90;;;;;;5013423;28;20030;-51
2022/05/24 00:27:42;;;;;;;15.07;3.40;;;27.40;99.90;;;;;;5013142;28;20477;-51
2022/05/24 00:30:08;;;;;;;15.18;3.58;;;27.40;99.90;;;;;;5012318;28;20105;-52
2022/05/24 00:32:35;;;;;;;18.10;4.07;;;27.30;99.90;;;;;;5013100;28;20478;-50
2022/05/24 00:35:00;;;;;;;11.63;2.97;;;27.40;99.90;;;;;;5013052;28;20030;-53
2022/05/24 00:37:28;;;;;;;8.32;3.40;;;27.40;99.90;;;;;;5012993;28;20025;-51
2022/05/24 00:39:53;;;;;;;;;;;27.30;99.90;;;;;;5013432;28;20084;-52
2022/05/24 00:42:24;;;;;;;14.35;3.03;;;27.30;99.90;;;;;;5012939;28;20348;-52
2022/05/24 00:45:01;;;;;;;16.17;4.07;;;27.30;99.90;;;;;;5013044;28;20018;-51
2022/05/24 00:47:39;;;;;;;12.55;2.58;;;27.20;99.90;;;;;;5012661;28;20040;-51
2022/05/24 00:50:07;;;;;;;;;;;27.20;99.90;;;;;;5013403;28;20026;-51
2022/05/24 00:52:43;;;;;;;7.18;2.50;;;27.30;99.90;;;;;;5011583;28;19944;-52
2022/05/24 00:55:13;;;;;;;7.72;2.08;;;27.30;99.90;;;;;;5012922;28;20029;-52
2022/05/24 00:58:05;;;;;;;4.65;2.10;;;27.20;99.90;;;;;;5012932;28;20390;-52
2022/05/24 01:00:31;;;;;;;8.70;1.92;;;27.20;99.90;;;;;;5012909;28;20454;-55
2022/05/24 01:02:57;;;;;;;8.50;1.77;;;27.20;99.90;;;;;;5012691;28;20109;-53
2022/05/24 01:05:27;;;;;;;5.57;2.17;;;27.20;99.90;;;;;;5012600;28;20097;-52
2022/05/24 01:07:53;;;;;;;5.32;1.98;;;27.10;99.90;;;;;;5012462;28;20603;-52
2022/05/24 01:10:33;;;;;;;8.70;2.33;;;27.10;99.90;;;;;;5012604;28;20022;-53
2022/05/24 01:13:10;;;;;;;6.22;2.53;;;27.10;99.90;;;;;;5012475;28;20038;-52
2022/05/24 01:15:37;;;;;;;7.32;2.50;;;27.10;99.90;;;;;;5012318;28;20033;-52
2022/05/24 01:18:03;;;;;;;7.57;2.20;;;27.00;99.90;;;;;;5012462;28;20030;-53
2022/05/24 01:20:29;;;;;;;5.53;1.50;;;27.00;99.90;;;;;;5012165;28;20105;-52
2022/05/24 01:23:10;;;;;;;5.70;1.50;;;27.00;99.90;;;;;;5012295;28;20108;-52
2022/05/24 01:25:55;;;;;;;11.52;2.13;;;27.00;99.90;;;;;;5010725;28;20026;-53
2022/05/24 01:28:43;;;;;;;8.55;2.13;;;27.00;99.90;;;;;;5012183;28;20038;-53
2022/05/24 01:31:09;;;;;;;4.60;1.40;;;27.00;99.90;;;;;;5011119;28;20385;-53
2022/05/24 01:36:24;;;;;;;7.30;1.90;;;26.90;99.90;;;;;;4999839;28;20477;-52
2022/05/24 01:38:58;;;;;;;5.05;1.30;;;26.90;99.90;;;;;;5012070;28;20465;-52
2022/05/24 01:41:28;;;;;;;5.10;1.40;;;26.90;99.90;;;;;;4999304;28;20021;-52
2022/05/24 01:43:56;;;;;;;6.35;1.75;;;26.90;99.90;;;;;;5010705;28;20030;-52
2022/05/24 01:46:30;;;;;;;8.13;2.30;;;26.80;99.90;;;;;;5011695;28;20030;-52
2022/05/24 01:49:02;;;;;;;12.57;1.80;;;26.80;99.90;;;;;;5011884;28;20143;-52
2022/05/24 01:51:33;;;;;;;5.32;1.65;;;26.70;99.90;;;;;;5011671;28;20025;-51
2022/05/24 01:54:02;;;;;;;11.57;2.00;;;26.70;99.90;;;;;;5011846;28;20033;-52
2022/05/24 01:56:40;;;;;;;7.97;1.77;;;26.70;99.90;;;;;;5011631;28;20033;-51
2022/05/24 01:59:10;;;;;;;6.15;1.65;;;26.60;99.90;;;;;;5012038;28;20113;-51
2022/05/24 02:01:50;;;;;;;6.30;1.80;;;26.60;99.90;;;;;;5011481;28;20409;-51
2022/05/24 02:04:17;;;;;;;8.02;2.28;;;26.50;99.90;;;;;;5011230;28;20077;-50
2022/05/24 02:06:43;;;;;;;5.63;1.63;;;26.40;99.90;;;;;;5011685;28;20363;-51
2022/05/24 02:09:13;;;;;;;5.68;2.10;;;26.40;99.90;;;;;;5011557;28;20030;-51
2022/05/24 02:11:40;;;;;;;9.13;2.08;;;26.40;99.90;;;;;;5011183;28;20473;-51
2022/05/24 02:14:19;;;;;;;5.25;1.77;;;26.40;99.90;;;;;;5011592;28;20117;-50
2022/05/24 02:17:08;;;;;;;19.75;2.17;;;26.30;99.90;;;;;;5011617;28;20034;-51
2022/05/24 02:19:41;;;;;;;8.20;1.77;;;26.30;99.90;;;;;;5011377;28;20022;-50
2022/05/24 02:22:12;;;;;;;7.63;1.95;;;26.20;99.90;;;;;;5011312;28;20025;-49
2022/05/24 02:24:38;;;;;;;8.48;1.88;;;26.20;99.90;;;;;;5011566;28;20046;-50
2022/05/24 02:27:04;;;;;;;8.48;2.45;;;26.20;99.90;;;;;;5011168;28;20393;-50
2022/05/24 02:29:31;;;;;;;4.80;1.90;;;26.20;99.90;;;;;;5011326;28;20025;-51
2022/05/24 02:31:57;;;;;;;4.43;2.00;;;26.10;99.90;;;;;;5011442;28;20045;-50
2022/05/24 02:34:23;;;;;;;4.07;2.10;;;26.10;99.90;;;;;;5009779;28;20386;-50
2022/05/24 02:36:49;;;;;;;4.15;1.88;;;26.10;99.90;;;;;;5011296;28;20036;-50
2022/05/24 02:39:15;;;;;;;8.75;2.17;;;26.00;99.90;;;;;;5011349;28;20470;-50
2022/05/24 02:41:40;;;;;;;7.00;2.42;;;26.00;99.90;;;;;;5011203;28;20037;-50
2022/05/24 02:44:09;;;;;;;2.95;2.00;;;26.00;99.90;;;;;;5011157;28;20056;-50
2022/05/24 02:46:38;;;;;;;7.47;2.13;;;26.00;99.90;;;;;;5011365;28;20030;-50
2022/05/24 02:49:04;;;;;;;4.90;1.98;;;26.00;99.90;;;;;;5011047;28;20537;-50
2022/05/24 02:51:31;;;;;;;5.68;1.75;;;26.00;99.90;;;;;;5011185;28;20026;-51
2022/05/24 02:53:57;;;;;;;6.07;1.95;;;26.00;99.90;;;;;;5011108;28;20030;-51
2022/05/24 02:56:23;;;;;;;7.10;2.05;;;26.00;99.90;;;;;;5011022;28;20020;-51
2022/05/24 02:58:49;;;;;;;6.00;1.70;;;26.00;99.90;;;;;;5011039;28;20034;-51
2022/05/24 03:01:23;;;;;;;7.20;1.98;;;25.90;99.90;;;;;;5011541;28;20053;-50
2022/05/24 03:03:51;;;;;;;5.28;1.88;;;26.00;99.90;;;;;;5010967;28;20037;-50
2022/05/24 03:06:19;;;;;;;6.32;2.08;;;25.90;99.90;;;;;;5010976;28;20033;-50
2022/05/24 03:14:14;;;;;;;5.55;1.90;;;26.00;99.90;;;;;;5011207;28;20049;-50
2022/05/24 03:14:16;;;;;;;4.60;1.63;;;25.80;99.90;;;;;;4998776;28;20146;-51
2022/05/24 03:16:48;;;;;;;5.80;1.90;;;25.80;99.90;;;;;;5013337;28;20036;-51
2022/05/24 03:19:14;;;;;;;3.70;1.80;;;25.70;99.90;;;;;;5014854;28;20018;-52
2022/05/24 03:21:39;;;;;;;7.32;2.47;;;25.70;99.90;;;;;;5014587;28;20053;-51
2022/05/24 03:24:06;;;;;;;4.75;1.73;;;25.70;99.90;;;;;;5014366;28;20456;-52
2022/05/24 03:26:31;;;;;;;4.82;1.90;;;25.70;99.90;;;;;;5014590;28;20042;-51
2022/05/24 03:28:57;;;;;;;4.38;1.60;;;25.70;99.90;;;;;;5014322;28;20025;-52
2022/05/24 03:31:23;;;;;;;7.15;2.15;;;25.70;99.90;;;;;;5014578;28;20072;-51
2022/05/24 03:33:49;;;;;;;5.40;2.13;;;25.70;99.90;;;;;;5014641;28;20029;-50
2022/05/24 03:36:15;;;;;;;4.80;1.75;;;25.70;99.90;;;;;;5014456;28;20022;-51
2022/05/24 03:38:41;;;;;;;3.30;1.88;;;25.70;99.90;;;;;;5014305;28;20044;-51
2022/05/24 03:41:06;;;;;;;4.55;1.88;;;25.60;99.90;;;;;;5014022;28;20458;-51
2022/05/24 03:43:32;;;;;;;3.92;1.73;;;25.60;99.90;;;;;;5014020;28;20033;-51
2022/05/24 03:46:00;;;;;;;5.72;2.25;;;25.60;99.90;;;;;;5013847;28;20038;-51
2022/05/24 03:48:26;;;;;;;5.82;1.73;;;25.60;99.90;;;;;;5014112;28;20029;-51
2022/05/24 03:50:52;;;;;;;4.13;1.70;;;25.60;99.90;;;;;;5013872;28;20496;-51
2022/05/24 03:53:18;;;;;;;3.75;1.73;;;25.60;99.90;;;;;;5014258;28;20032;-51
2022/05/24 03:55:43;;;;;;;5.85;1.90;;;25.60;99.90;;;;;;5014085;28;20065;-51
2022/05/24 03:58:09;;;;;;;4.95;1.48;;;25.60;99.90;;;;;;5013784;28;20045;-51
2022/05/24 04:00:40;;;;;;;7.80;1.60;;;25.60;99.90;;;;;;5014659;28;20054;-51
2022/05/24 04:03:06;;;;;;;5.80;2.20;;;25.50;99.90;;;;;;5013619;28;20018;-52
2022/05/24 04:05:33;;;;;;;7.68;1.83;;;25.50;99.90;;;;;;5013755;28;20088;-52
2022/05/24 04:07:59;;;;;;;5.38;1.88;;;25.40;99.90;;;;;;5013527;28;20053;-52
2022/05/24 04:10:25;;;;;;;3.33;2.00;;;25.50;99.90;;;;;;5013876;28;20049;-52
2022/05/24 04:12:51;;;;;;;7.03;1.95;;;25.50;99.90;;;;;;5013712;28;20260;-52
2022/05/24 04:15:18;;;;;;;9.60;1.73;;;25.40;99.90;;;;;;5013606;28;20104;-51
2022/05/24 04:17:46;;;;;;;5.63;1.97;;;25.40;99.90;;;;;;5012328;28;20029;-51
2022/05/24 04:20:13;;;;;;;10.13;2.38;;;25.40;99.90;;;;;;5013339;28;20055;-51
2022/05/24 04:22:38;;;;;;;5.33;1.90;;;25.40;99.90;;;;;;5013469;28;20041;-51
2022/05/24 04:25:06;;;;;;;5.13;1.88;;;25.30;99.90;;;;;;5013334;28;20474;-51
2022/05/24 04:27:32;;;;;;;8.23;2.00;;;25.30;99.90;;;;;;5012776;28;20054;-52
2022/05/24 04:29:58;;;;;;;8.20;2.53;;;25.30;99.90;;;;;;5013324;28;20104;-51
2022/05/24 04:32:24;;;;;;;4.30;2.28;;;25.30;99.90;;;;;;5013140;28;20522;-52
2022/05/24 04:34:49;;;;;;;10.70;2.38;;;25.30;99.90;;;;;;5013440;28;20540;-51
2022/05/24 04:37:15;;;;;;;8.82;2.42;;;25.30;99.90;;;;;;5012944;28;20025;-52
2022/05/24 04:39:41;;;;;;;6.72;2.00;;;25.20;99.90;;;;;;5013053;28;20022;-51
2022/05/24 04:42:21;;;;;;;10.77;2.20;;;25.20;99.90;;;;;;5013021;28;20037;-51
2022/05/24 04:44:50;;;;;;;8.52;1.90;;;25.20;99.90;;;;;;5013103;28;20382;-51
2022/05/24 04:47:16;;;;;;;10.82;3.20;;;25.20;99.90;;;;;;5012938;28;20136;-51
2022/05/24 04:49:46;;;;;;;11.10;2.45;;;25.20;99.90;;;;;;5012761;28;20058;-51
2022/05/24 04:52:14;;;;;;;7.53;2.15;;;25.10;99.90;;;;;;5012979;28;20022;-51
2022/05/24 04:54:41;;;;;;;7.25;2.47;;;25.00;99.90;;;;;;5012671;28;20029;-51
2022/05/24 04:57:08;;;;;;;5.10;2.40;;;25.00;99.90;;;;;;5012793;28;20471;-51
2022/05/24 04:59:35;;;;;;;6.28;1.88;;;24.90;99.90;;;;;;5012707;28;20026;-52
2022/05/24 05:02:01;;;;;;;8.07;2.70;;;24.90;99.90;;;;;;5012503;28;20048;-51
2022/05/24 05:04:27;;;;;;;5.40;2.30;;;24.90;99.90;;;;;;5012538;28;20437;-52
2022/05/24 05:06:53;;;;;;;11.20;2.35;;;24.90;99.90;;;;;;5012675;28;20034;-51
2022/05/24 05:09:19;;;;;;;14.23;2.85;;;24.90;99.90;;;;;;5012556;28;20037;-51
2022/05/24 05:11:45;;;;;;;10.40;3.42;;;24.90;99.90;;;;;;5012331;28;20026;-51
2022/05/24 05:14:11;;;;;;;7.40;2.70;;;24.80;99.90;;;;;;5012479;28;20010;-52
2022/05/24 05:16:38;;;;;;;7.50;2.38;;;24.90;99.90;;;;;;5012580;28;20112;-51
2022/05/24 05:19:05;;;;;;;14.27;3.67;;;24.90;99.90;;;;;;5012249;28;20053;-52
2022/05/24 05:21:33;;;;;;;7.47;3.00;;;24.80;99.90;;;;;;5012375;28;20022;-52
2022/05/24 05:24:00;;;;;;;9.07;2.63;;;24.70;99.90;;;;;;5012218;28;20021;-52
2022/05/24 05:26:26;;;;;;;13.57;3.30;;;24.70;99.90;;;;;;5012149;28;20486;-52
2022/05/24 05:28:52;;;;;;;9.23;2.85;;;24.70;99.90;;;;;;5010996;28;20605;-52
2022/05/24 05:31:36;;;;;;;14.18;3.95;;;24.70;99.90;;;;;;5010968;28;20021;-52
2022/05/24 05:34:03;;;;;;;4.88;2.78;;;24.70;99.90;;;;;;5011996;28;20034;-53
2022/05/24 05:36:30;;;;;;;8.75;3.20;;;24.60;99.90;;;;;;5012037;28;20033;-53
2022/05/24 05:38:56;;;;;;;;;;;24.60;99.90;;;;;;5011797;28;20018;-53
2022/05/24 05:41:28;;;;;;;9.15;3.15;;;24.60;99.90;;;;;;5012307;28;19985;-52
2022/05/24 05:43:56;;;;;;;11.23;3.60;;;24.60;99.90;;;;;;5012251;28;20432;-53
2022/05/24 05:46:21;;;;;;;9.13;3.22;;;24.50;99.90;;;;;;5010588;28;20038;-52
2022/05/24 05:48:47;;;;;;;7.93;2.95;;;24.50;99.90;;;;;;5011970;28;20041;-53
2022/05/24 05:51:15;;;;;;;5.93;3.00;;;24.50;99.90;;;;;;5011722;28;20033;-52
2022/05/24 05:53:41;;;;;;;;;;;24.50;99.90;;;;;;5012148;28;20041;-53
2022/05/24 05:56:13;;;;;;;6.10;3.17;;;24.50;99.90;;;;;;5011685;28;19905;-52
2022/05/24 05:58:39;;;;;;;9.65;3.10;;;24.40;99.90;;;;;;5011798;28;20386;-54
2022/05/24 06:01:05;;;;;;;10.38;2.90;;;24.40;99.90;;;;;;5011380;28;20041;-54
2022/05/24 06:03:31;;;;;;;12.63;3.08;;;24.40;99.90;;;;;;5011663;28;20500;-53
2022/05/24 06:06:00;;;;;;;9.75;3.30;;;24.40;99.90;;;;;;5011935;28;20482;-53
2022/05/24 06:08:26;;;;;;;8.00;3.03;;;24.30;99.90;;;;;;5011752;28;20040;-53
2022/05/24 06:10:53;;;;;;;9.27;3.25;;;24.30;99.90;;;;;;5011593;28;20026;-53
2022/05/24 06:13:19;;;;;;;9.90;3.05;;;24.40;99.90;;;;;;5011487;28;20466;-53
2022/05/24 06:15:49;;;;;;;10.63;3.30;;;24.30;99.90;;;;;;5007704;28;20033;-53
2022/05/24 06:18:14;;;;;;;9.35;3.95;;;24.40;99.90;;;;;;5011386;28;20029;-53
2022/05/24 06:20:40;;;;;;;6.53;3.10;;;24.40;99.90;;;;;;5010108;28;20022;-53
2022/05/24 06:23:06;;;;;;;7.70;3.30;;;24.50;99.90;;;;;;5003352;28;20065;-53
2022/05/24 06:25:32;;;;;;;6.15;2.97;;;24.50;99.90;;;;;;5011256;28;20014;-52
2022/05/24 06:27:59;;;;;;;5.82;3.53;;;24.70;99.90;;;;;;5011411;28;20571;-53
2022/05/24 06:30:26;;;;;;;10.18;3.17;;;24.90;99.90;;;;;;5005079;28;20030;-52
2022/05/24 06:32:52;;;;;;;4.28;2.47;;;25.00;99.90;;;;;;5006964;28;20034;-53
2022/05/24 06:35:19;;;;;;;7.18;3.08;;;25.10;99.90;;;;;;5010679;28;20509;-53
2022/05/24 06:37:46;;;;;;;8.30;2.77;;;25.20;99.90;;;;;;5007747;28;20026;-53
2022/05/24 06:40:15;;;;;;;8.43;3.00;;;25.30;99.90;;;;;;5011000;28;20036;-53
2022/05/24 06:42:41;;;;;;;8.88;2.95;;;25.40;99.90;;;;;;5010861;28;20030;-53
2022/05/24 06:45:08;;;;;;;7.30;2.90;;;25.50;99.90;;;;;;5009831;28;20036;-53
2022/05/24 06:47:34;;;;;;;;;;;25.60;99.90;;;;;;5010775;28;20057;-53
2022/05/24 06:50:00;;;;;;;8.75;2.47;;;25.70;99.90;;;;;;5013950;28;19906;-53
2022/05/24 06:52:25;;;;;;;5.75;2.80;;;25.70;99.90;;;;;;5015141;28;20105;-53
2022/05/24 06:54:53;;;;;;;6.07;3.00;;;25.80;99.90;;;;;;5014786;28;20026;-53
2022/05/24 06:57:18;;;;;;;8.63;2.63;;;25.80;99.90;;;;;;5014937;28;20021;-53
2022/05/24 07:02:29;;;;;;;6.45;2.60;;;25.90;99.90;;;;;;5015333;28;20587;-53
2022/05/24 07:05:02;;;;;;;8.13;2.58;;;25.90;99.90;;;;;;5014633;28;20033;-52
2022/05/24 07:07:30;;;;;;;8.50;2.70;;;25.90;99.90;;;;;;5014918;28;20118;-53
2022/05/24 07:09:56;;;;;;;;;;;26.00;99.90;;;;;;5015269;28;20044;-53
2022/05/24 07:12:23;;;;;;;7.90;3.20;;;26.00;99.90;;;;;;5014412;28;19910;-53
2022/05/24 07:14:49;;;;;;;7.57;2.47;;;26.10;99.90;;;;;;5014721;28;20033;-53
2022/05/24 07:17:17;;;;;;;6.10;2.50;;;26.10;99.90;;;;;;5014484;28;20060;-54
2022/05/24 07:19:43;;;;;;;12.02;3.38;;;26.10;99.90;;;;;;5014564;28;20358;-53
2022/05/24 07:22:10;;;;;;;4.85;2.38;;;26.20;99.90;;;;;;5014487;28;20030;-53
2022/05/24 07:24:36;;;;;;;5.35;2.28;;;26.20;99.90;;;;;;5014446;28;20105;-52
2022/05/24 07:27:04;;;;;;;7.38;2.70;;;26.20;99.90;;;;;;5014249;28;20038;-53
2022/05/24 07:29:35;;;;;;;8.15;2.55;;;26.30;99.90;;;;;;5013268;28;20092;-53
2022/05/24 07:32:01;;;;;;;7.78;2.33;;;26.30;99.90;;;;;;5014611;28;20060;-53
2022/05/24 07:34:26;;;;;;;8.20;2.40;;;26.30;99.90;;;;;;5012743;28;20050;-53
2022/05/24 07:36:52;;;;;;;7.70;3.83;;;26.40;99.90;;;;;;5014364;28;20036;-53
2022/05/24 07:39:18;;;;;;;6.57;3.83;;;26.40;99.90;;;;;;5013876;28;20059;-53
2022/05/24 07:47:14;;;;;;;7.75;3.50;;;26.40;99.90;;;;;;5013919;28;20037;-53
2022/05/24 07:49:40;;;;;;;7.72;3.20;;;26.50;99.90;;;;;;5013764;28;20046;-52
2022/05/24 07:52:06;;;;;;;7.05;3.35;;;26.50;99.90;;;;;;5013894;28;20033;-53
2022/05/24 07:54:33;;;;;;;4.72;2.60;;;26.50;99.90;;;;;;5013801;28;20061;-53
2022/05/24 07:56:59;;;;;;;7.53;3.03;;;26.60;99.90;;;;;;5014046;28;20030;-53
2022/05/24 07:59:25;;;;;;;6.65;3.20;;;26.60;99.90;;;;;;5013670;28;20022;-54
2022/05/24 08:01:52;;;;;;;4.05;2.55;;;26.60;99.90;;;;;;5012896;28;20064;-53
2022/05/24 08:04:19;;;;;;;5.88;3.22;;;26.60;99.90;;;;;;5013606;28;20056;-53
2022/05/24 08:06:46;;;;;;;8.77;2.78;;;26.60;99.90;;;;;;5013468;28;20030;-53
2022/05/24 08:09:11;;;;;;;8.80;2.92;;;26.60;99.90;;;;;;5013525;28;20125;-53
2022/05/24 08:11:38;;;;;;;9.30;3.17;;;26.60;99.90;;;;;;5013349;28;20475;-53
2022/05/24 08:14:04;;;;;;;8.68;6.10;;;26.60;99.90;;;;;;5013599;28;20050;-53
2022/05/24 08:16:32;;;;;;;9.40;3.42;;;26.60;99.90;;;;;;5013638;28;20037;-52
2022/05/24 08:19:02;;;;;;;9.93;3.00;;;26.70;99.90;;;;;;5013333;28;20026;-52
2022/05/24 08:21:29;;;;;;;6.60;2.72;;;26.70;99.90;;;;;;5013533;28;20017;-52
2022/05/24 08:23:55;;;;;;;8.75;2.78;;;26.70;99.90;;;;;;5013346;28;20045;-53
2022/05/24 08:26:21;;;;;;;5.40;2.60;;;26.70;99.90;;;;;;5013139;28;20032;-53
2022/05/24 08:28:47;;;;;;;7.15;2.75;;;26.70;99.90;;;;;;5013100;28;20109;-53
2022/05/24 08:31:15;;;;;;;10.43;3.20;;;26.70;99.90;;;;;;5013108;28;20076;-53
2022/05/24 08:33:42;;;;;;;9.05;3.28;;;26.70;99.90;;;;;;5013369;28;20038;-53
2022/05/24 08:36:08;;;;;;;10.85;3.65;;;26.40;99.90;;;;;;5013027;28;20125;-53
2022/05/24 08:38:34;;;;;;;9.10;3.45;;;26.30;99.90;;;;;;5013272;28;20029;-53
2022/05/24 08:41:03;;;;;;;9.77;4.85;;;26.30;99.90;;;;;;5012998;28;20029;-53
2022/05/24 08:43:44;;;;;;;13.05;4.82;;;26.10;99.90;;;;;;5012935;28;20025;-53
2022/05/24 08:49:19;;;;;;;13.52;4.30;;;25.70;99.90;;;;;;5013206;28;20088;-53
2022/05/24 08:51:57;;;;;;;15.18;4.78;;;25.60;99.90;;;;;;5012622;28;20037;-53
2022/05/24 08:54:32;;;;;;;12.65;4.20;;;25.30;99.90;;;;;;5012842;28;20030;-53
2022/05/24 08:57:11;;;;;;;14.75;3.85;;;25.10;99.90;;;;;;5012728;28;20382;-52
2022/05/24 09:00:01;;;;;;;10.18;3.47;;;25.00;99.90;;;;;;5012456;28;20014;-52
2022/05/24 09:02:28;;;;;;;14.93;4.05;;;25.00;99.90;;;;;;5012611;28;20132;-51
2022/05/24 09:04:53;;;;;;;8.57;3.40;;;25.00;99.90;;;;;;5012361;28;20022;-52
2022/05/24 09:07:58;;;;;;;7.35;3.28;;;24.90;99.90;;;;;;5012601;28;20040;-52
2022/05/24 09:10:33;;;;;;;15.35;4.30;;;24.90;99.90;;;;;;5000651;28;20029;-52
2022/05/24 09:13:19;;;;;;;11.88;3.92;;;24.70;99.90;;;;;;5011251;28;20397;-52
2022/05/24 09:15:56;;;;;;;13.90;3.90;;;24.60;99.90;;;;;;5012037;28;20026;-52
2022/05/24 09:18:34;;;;;;;13.70;4.95;;;24.60;99.90;;;;;;5012150;28;20474;-52
2022/05/24 09:21:00;;;;;;;12.48;4.15;;;24.60;99.90;;;;;;4999554;28;20117;-52
2022/05/24 09:23:50;;;;;;;18.55;5.25;;;24.60;99.90;;;;;;5012264;28;20022;-52
2022/05/24 09:26:22;;;;;;;12.57;4.07;;;24.60;99.90;;;;;;5000712;28;20029;-53
2022/05/24 09:28:52;;;;;;;17.52;4.50;;;24.70;99.90;;;;;;5011900;28;20026;-53
2022/05/24 09:31:47;;;;;;;19.15;4.00;;;24.80;99.90;;;;;;5012134;28;20148;-53
2022/05/24 09:34:19;;;;;;;11.27;3.95;;;24.90;99.90;;;;;;5011798;28;20489;-53
2022/05/24 09:37:22;;;;;;;16.27;4.63;;;24.90;99.90;;;;;;5012029;28;20034;-53
2022/05/24 09:40:07;;;;;;;14.40;3.90;;;25.00;99.90;;;;;;4988010;28;20125;-54
2022/05/24 09:42:36;;;;;;;20.75;4.40;;;25.00;99.90;;;;;;5011677;28;20030;-53
2022/05/24 09:45:17;;;;;;;15.23;4.45;;;25.10;99.90;;;;;;5011991;28;20105;-53
2022/05/24 09:47:46;;;;;;;17.85;5.35;;;25.10;99.90;;;;;;5011528;28;20041;-53
2022/05/24 09:50:17;;;;;;;18.65;5.20;;;25.10;99.90;;;;;;5011756;28;20423;-53
2022/05/24 09:53:03;;;;;;;14.40;5.47;;;25.20;99.90;;;;;;5011640;28;20101;-53
2022/05/24 09:55:36;;;;;;;11.68;5.60;;;25.10;99.90;;;;;;5011805;28;20034;-53
2022/05/24 09:58:21;;;;;;;11.13;5.03;;;25.10;99.90;;;;;;5011690;28;20017;-53
2022/05/24 10:00:51;;;;;;;16.83;5.32;;;25.00;99.90;;;;;;5011722;28;20085;-53
2022/05/24 10:03:26;;;;;;;22.60;9.70;;;25.10;99.90;;;;;;5011431;28;20010;-53
2022/05/24 10:06:11;;;;;;;22.40;10.00;;;25.00;99.90;;;;;;5011411;28;20434;-53
2022/05/24 10:08:45;;;;;;;20.35;9.80;;;24.90;99.90;;;;;;4999096;28;20034;-53
2022/05/24 10:11:20;;;;;;;12.93;7.63;;;24.80;99.90;;;;;;5011340;28;20032;-53
2022/05/24 10:14:11;;;;;;;14.55;6.15;;;24.80;99.90;;;;;;5011252;28;20030;-53
2022/05/24 10:16:49;;;;;;;22.65;4.85;;;24.80;99.90;;;;;;5010392;28;20187;-53
2022/05/24 10:19:51;;;;;;;13.60;4.40;;;24.80;99.90;;;;;;5010073;28;20018;-53
2022/05/24 10:22:37;;;;;;;10.68;4.72;;;24.90;99.90;;;;;;5008852;28;20018;-53
2022/05/24 10:25:24;;;;;;;15.52;5.53;;;24.90;99.90;;;;;;4960736;28;20038;-53
2022/05/24 10:28:05;;;;;;;13.40;5.40;;;24.90;99.90;;;;;;4998788;28;20038;-53
2022/05/24 10:30:43;;;;;;;15.98;5.05;;;24.80;99.90;;;;;;5009706;28;20065;-53
2022/05/24 10:39:34;;;;;;;11.23;3.75;;;24.70;99.90;;;;;;5011338;28;20501;-53
2022/05/24 10:42:35;;;;;;;13.00;4.38;;;24.70;99.90;;;;;;5009858;28;20033;-53
2022/05/24 10:45:15;;;;;;;12.32;4.22;;;24.70;99.90;;;;;;5011718;28;20026;-53
2022/05/24 10:47:57;;;;;;;19.02;5.65;;;24.80;99.90;;;;;;5008033;28;20489;-53
2022/05/24 10:50:46;;;;;;;15.15;4.55;;;24.80;99.90;;;;;;5011018;28;20030;-51
2022/05/24 10:53:27;;;;;;;14.60;5.63;;;24.90;99.90;;;;;;5011110;28;20053;-53
2022/05/24 10:56:23;;;;;;;14.98;4.78;;;25.00;99.90;;;;;;5011145;28;20447;-53
2022/05/24 10:58:51;;;;;;;10.82;3.47;;;25.00;99.90;;;;;;5010980;28;20030;-53
2022/05/24 11:01:38;;;;;;;17.10;4.43;;;24.90;99.90;;;;;;5010558;28;20475;-53
2022/05/24 11:04:07;;;;;;;;;;;25.00;99.90;;;;;;5011399;28;20039;-52
2022/05/24 11:06:41;;;;;;;14.52;4.38;;;25.00;99.90;;;;;;5010634;28;19924;-52
2022/05/24 11:09:30;;;;;;;14.93;3.53;;;25.00;99.90;;;;;;5010764;28;20105;-52
2022/05/24 11:12:07;;;;;;;15.00;3.90;;;25.00;99.90;;;;;;5010758;28;20048;-52
2022/05/24 11:14:42;;;;;;;17.10;4.10;;;25.00;99.90;;;;;;5010676;28;20026;-52
2022/05/24 11:17:12;;;;;;;12.10;3.45;;;25.10;99.90;;;;;;5010364;28;20022;-52
2022/05/24 11:19:44;;;;;;;18.73;3.80;;;25.10;99.90;;;;;;5010822;28;20025;-52
2022/05/24 11:22:16;;;;;;;16.42;4.45;;;25.00;99.90;;;;;;5009691;28;20025;-52
2022/05/24 11:25:03;;;;;;;11.80;3.10;;;24.90;99.90;;;;;;5010743;28;20030;-53
2022/05/24 11:27:42;;;;;;;20.50;6.13;;;25.00;99.90;;;;;;5010474;28;20037;-52
2022/05/24 11:30:25;;;;;;;16.02;4.15;;;25.00;99.90;;;;;;5010690;28;20109;-53
2022/05/24 11:33:13;;;;;;;13.82;4.00;;;25.10;99.90;;;;;;4997513;28;20040;-53
2022/05/24 11:35:52;;;;;;;16.30;3.60;;;25.10;99.90;;;;;;5010438;28;20049;-53
2022/05/24 11:38:24;;;;;;;19.23;5.72;;;25.20;99.90;;;;;;5012850;28;20036;-54
2022/05/24 11:41:19;;;;;;;13.43;4.25;;;25.20;99.90;;;;;;5014083;28;20037;-52
2022/05/24 11:43:44;;;;;;;17.88;5.38;;;25.30;99.90;;;;;;5014247;28;20100;-53
2022/05/24 11:46:38;;;;;;;16.27;3.83;;;25.30;99.90;;;;;;5012604;28;20458;-53
2022/05/24 11:49:04;;;;;;;16.23;3.83;;;25.40;99.90;;;;;;5013816;28;20030;-53
2022/05/24 11:51:46;;;;;;;15.10;3.10;;;25.50;99.90;;;;;;5014023;28;20394;-53
2022/05/24 11:54:18;;;;;;;11.30;3.00;;;25.50;99.90;;;;;;5014020;28;20393;-52
2022/05/24 11:57:02;;;;;;;9.07;2.42;;;25.60;99.90;;;;;;5014118;28;20032;-52
2022/05/24 11:59:40;;;;;;;13.68;3.53;;;25.60;99.90;;;;;;5013629;28;20378;-53
2022/05/24 12:02:21;;;;;;;19.35;3.63;;;25.60;99.90;;;;;;5013766;28;20086;-53
2022/05/24 12:07:59;;;;;;;14.25;2.70;;;25.60;99.90;;;;;;5013778;28;20037;-53
2022/05/24 12:10:46;;;;;;;17.63;3.83;;;25.50;99.90;;;;;;5001687;28;20030;-53
2022/05/24 12:13:30;;;;;;;18.45;3.75;;;25.40;99.90;;;;;;5013622;28;20025;-53
2022/05/24 12:16:00;;;;;;;15.27;3.60;;;25.50;99.90;;;;;;5001061;28;20048;-53
2022/05/24 12:18:42;;;;;;;13.45;2.97;;;25.50;99.90;;;;;;5013445;28;20022;-53
2022/05/24 12:21:09;;;;;;;13.10;3.53;;;25.60;99.90;;;;;;5001928;28;20030;-53
2022/05/24 12:23:41;;;;;;;24.88;4.30;;;25.70;99.90;;;;;;5013191;28;20057;-53
2022/05/24 12:26:12;;;;;;;13.57;2.67;;;25.70;99.90;;;;;;5013341;28;20026;-53
2022/05/24 12:28:38;;;;;;;16.33;3.00;;;25.80;99.90;;;;;;5013252;28;20026;-53
2022/05/24 12:31:27;;;;;;;26.80;3.97;;;25.80;99.90;;;;;;5012937;28;20022;-53
2022/05/24 12:34:14;;;;;;;24.30;3.10;;;25.90;99.90;;;;;;5011832;28;20131;-53
2022/05/24 12:36:39;;;;;;;15.45;4.65;;;25.90;99.90;;;;;;5013300;28;20252;-53
2022/05/24 12:39:09;;;;;;;19.27;5.40;;;26.00;99.90;;;;;;5012915;28;20498;-53
2022/05/24 12:41:37;;;;;;;12.95;2.97;;;26.00;99.90;;;;;;5011724;28;20025;-53
2022/05/24 12:44:21;;;;;;;16.40;3.53;;;26.10;99.90;;;;;;5012831;28;20061;-53
2022/05/24 12:47:07;;;;;;;13.95;2.08;;;26.10;99.90;;;;;;5011836;28;20389;-53
2022/05/24 12:49:36;;;;;;;11.93;1.77;;;26.30;99.90;;;;;;4997848;28;20034;-53
2022/05/24 12:52:14;;;;;;;14.13;2.25;;;26.40;99.90;;;;;;5012716;28;20440;-54
2022/05/24 12:54:46;;;;;;;11.20;1.77;;;26.60;99.90;;;;;;5012793;28;20037;-54
2022/05/24 12:57:28;;;;;;;9.93;2.33;;;26.70;99.90;;;;;;5012724;28;20065;-53
2022/05/24 13:00:00;;;;;;;10.82;1.80;;;26.80;99.90;;;;;;5012437;28;20515;-53
2022/05/24 13:02:29;;;;;;;12.13;1.60;;;26.90;99.90;;;;;;5012603;28;20030;-53
2022/05/24 13:05:02;;;;;;;15.40;2.35;;;26.90;99.90;;;;;;5012438;28;20006;-53
2022/05/24 13:07:56;;;;;;;12.15;2.05;;;27.00;99.90;;;;;;5012717;28;20036;-53
2022/05/24 13:10:24;;;;;;;10.95;1.92;;;27.00;99.90;;;;;;5000247;28;20105;-53
2022/05/24 13:12:53;;;;;;;27.85;2.10;;;27.00;99.90;;;;;;5012459;28;20022;-53
2022/05/24 13:15:27;;;;;;;12.65;1.77;;;27.10;99.90;;;;;;5012515;28;20060;-53
2022/05/24 13:17:58;;;;;;;11.35;1.30;;;27.10;99.90;;;;;;5007255;28;20027;-54
2022/05/24 13:20:25;;;;;;;6.53;1.42;;;27.20;99.90;;;;;;4994934;28;20035;-53
2022/05/24 13:22:55;;;;;;;15.02;1.63;;;27.20;99.90;;;;;;5005744;28;20093;-52
2022/05/24 13:25:26;;;;;;;11.85;1.70;;;27.20;99.90;;;;;;5010446;28;20026;-53
2022/05/24 13:28:03;;;;;;;10.23;1.33;;;27.20;99.90;;;;;;5012074;28;20038;-53
2022/05/24 13:33:35;;;;;;;11.40;1.83;;;27.20;99.90;;;;;;5012437;28;20033;-51
2022/05/24 13:36:29;;;;;;;15.20;2.38;;;27.20;99.90;;;;;;5011906;28;20433;-53